Time;durP1;ratioP1;P1;durP2;ratioP2;P2;SDS_P1;SDS_P2;PMS_P1;PMS_P2;Temp;Humidity;BMP_temperature;BMP_pressure;BME280_temperature;BME280_humidity;BME280_pressure;Samples;Min_cycle;Max_cycle;Signal;HPM_P1;HPM_P2
2022/08/02 00:01:41;;;;;;;6.35;2.35;;;;;;;16.35;66.46;101854.84;6005205;29;20247;-69
2022/08/02 00:05:04;;;;;;;3.05;1.95;;;;;;;16.29;67.14;101855.41;5996318;29;20234;-74
2022/08/02 00:08:25;;;;;;;4.32;1.73;;;;;;;16.40;66.89;101852.50;6005056;29;20235;-73
2022/08/02 00:11:46;;;;;;;3.08;2.65;;;;;;;16.40;66.64;101854.38;6006083;29;21839;-74
2022/08/02 00:15:09;;;;;;;3.70;1.77;;;;;;;16.42;66.98;101858.66;6001859;29;21684;-73
2022/08/02 00:18:31;;;;;;;8.20;2.53;;;;;;;16.34;67.59;101858.56;6006270;29;20309;-74
2022/08/02 00:21:52;;;;;;;6.10;2.80;;;;;;;16.34;67.25;101853.13;6004646;29;20239;-72
2022/08/02 00:25:13;;;;;;;3.58;2.00;;;;;;;16.29;67.01;101846.41;6004630;29;20242;-73
2022/08/02 00:28:34;;;;;;;5.93;1.98;;;;;;;16.25;67.65;101847.72;6004858;29;20242;-73
2022/08/02 00:31:55;;;;;;;5.35;2.10;;;;;;;16.11;67.89;101840.00;6003741;29;20266;-73
2022/08/02 00:35:17;;;;;;;5.50;1.83;;;;;;;16.16;68.48;101841.31;6009324;29;20242;-73
2022/08/02 00:38:38;;;;;;;6.40;2.28;;;;;;;16.14;67.79;101837.00;6004435;29;20231;-73
2022/08/02 00:41:59;;;;;;;4.70;2.50;;;;;;;16.02;68.25;101833.59;6007765;29;20238;-73
2022/08/02 00:45:20;;;;;;;8.32;3.30;;;;;;;15.94;69.25;101837.06;6007508;29;20242;-72
2022/08/02 00:48:41;;;;;;;5.57;2.45;;;;;;;16.07;67.74;101842.19;6007414;29;20825;-73
2022/08/02 00:52:04;;;;;;;7.45;3.00;;;;;;;16.01;68.87;101853.66;6006985;29;20753;-73
2022/08/02 00:55:26;;;;;;;7.95;3.13;;;;;;;16.06;68.02;101851.38;6002471;29;20242;-73
2022/08/02 00:58:47;;;;;;;3.65;2.05;;;;;;;15.97;68.32;101854.97;6004566;29;20234;-71
2022/08/02 01:02:09;;;;;;;5.65;1.95;;;;;;;15.93;68.41;101858.97;6007549;29;20496;-73
2022/08/02 01:05:30;;;;;;;5.78;2.72;;;;;;;15.95;68.61;101860.56;6004415;29;20266;-73
2022/08/02 01:08:52;;;;;;;6.00;2.40;;;;;;;15.98;68.89;101862.09;6003628;29;20231;-73
2022/08/02 01:12:14;;;;;;;6.93;3.03;;;;;;;15.65;68.90;101868.03;6003175;29;20234;-73
2022/08/02 01:15:40;;;;;;;6.95;3.03;;;;;;;15.76;69.66;101868.75;6003076;29;20523;-72
2022/08/02 01:19:14;;;;;;;7.22;2.03;;;;;;;15.75;69.13;101874.34;6004507;29;20230;-73
2022/08/02 01:23:05;;;;;;;7.43;2.47;;;;;;;15.70;69.41;101874.75;6003186;29;21425;-74
2022/08/02 01:26:42;;;;;;;4.35;2.03;;;;;;;15.76;69.43;101874.19;5996357;29;20254;-72
2022/08/02 01:30:06;;;;;;;2.80;2.10;;;;;;;15.71;69.94;101876.47;6004840;29;20349;-72
2022/08/02 01:33:40;;;;;;;8.40;3.05;;;;;;;15.66;69.73;101876.06;5978661;29;20246;-73
2022/08/02 01:37:18;;;;;;;3.30;1.90;;;;;;;15.37;70.50;101868.88;6006649;29;20242;-72
2022/08/02 01:40:41;;;;;;;4.50;2.20;;;;;;;15.60;70.98;101871.22;6000632;29;20281;-73
2022/08/02 01:44:05;;;;;;;3.00;1.80;;;;;;;15.61;70.79;101869.31;6004833;29;20242;-73
2022/08/02 01:47:31;;;;;;;4.57;2.60;;;;;;;15.31;71.04;101869.44;6004142;29;20498;-73
2022/08/02 01:50:53;;;;;;;3.60;2.37;;;;;;;15.41;71.79;101871.19;6002775;29;20235;-72
2022/08/02 01:54:18;;;;;;;5.43;2.43;;;;;;;15.33;71.36;101868.31;5998684;29;20242;-73
2022/08/02 01:57:46;;;;;;;4.93;1.80;;;;;;;15.39;71.18;101867.75;6000263;29;21519;-73
2022/08/02 02:01:09;;;;;;;5.80;2.53;;;;;;;15.27;72.04;101868.03;6001109;29;20532;-72
2022/08/02 02:04:32;;;;;;;6.50;2.80;;;;;;;15.32;71.53;101871.16;5997966;29;20230;-73
2022/08/02 02:07:56;;;;;;;5.57;2.40;;;;;;;15.28;72.78;101875.16;6004501;29;20238;-73
2022/08/02 02:11:18;;;;;;;5.47;2.50;;;;;;;15.33;71.92;101867.44;6003043;29;20231;-73
2022/08/02 02:14:40;;;;;;;5.57;2.60;;;;;;;15.28;72.72;101884.16;5996666;29;20755;-73
2022/08/02 02:18:02;;;;;;;6.68;2.63;;;;;;;15.12;72.64;101886.59;6004525;29;20238;-73
2022/08/02 02:21:25;;;;;;;5.07;2.43;;;;;;;15.02;73.01;101882.97;6004127;29;20222;-73
2022/08/02 02:24:46;;;;;;;6.87;2.90;;;;;;;15.03;73.01;101879.28;6005394;29;21659;-73
2022/08/02 02:28:11;;;;;;;6.07;2.30;;;;;;;14.97;72.95;101871.69;6001013;29;20234;-73
2022/08/02 02:31:35;;;;;;;3.30;2.13;;;;;;;14.80;73.38;101862.38;5997400;29;20238;-73
2022/08/02 02:34:58;;;;;;;6.10;2.50;;;;;;;14.71;73.75;101856.91;6001065;29;20310;-74
2022/08/02 02:38:22;;;;;;;7.40;2.97;;;;;;;14.62;74.43;101850.47;6004072;29;20660;-73
2022/08/02 02:41:44;;;;;;;5.87;2.60;;;;;;;14.65;74.42;101857.47;6007222;29;20524;-72
2022/08/02 02:45:07;;;;;;;4.17;2.73;;;;;;;14.60;74.60;101848.88;6001499;29;20235;-74
2022/08/02 02:48:29;;;;;;;6.70;2.67;;;;;;;14.52;74.79;101846.84;5996384;29;20238;-73
2022/08/02 02:51:51;;;;;;;5.87;2.80;;;;;;;14.46;75.11;101846.56;6003983;29;20265;-72
2022/08/02 02:55:15;;;;;;;8.03;2.83;;;;;;;14.63;74.67;101840.44;6006303;29;20301;-73
2022/08/02 02:58:39;;;;;;;6.27;2.37;;;;;;;14.56;75.00;101842.84;5999236;29;20226;-72
2022/08/02 03:02:00;;;;;;;6.10;3.00;;;;;;;14.63;74.16;101838.59;5993791;29;20238;-73
2022/08/02 03:05:22;;;;;;;25.57;23.30;;;;;;;14.56;74.92;101840.13;6005254;29;20238;-73
2022/08/02 03:08:43;;;;;;;12.67;11.47;;;;;;;14.37;75.76;101845.53;6008752;29;20261;-72
2022/08/02 03:12:07;;;;;;;3.83;2.87;;;;;;;14.30;75.65;101844.34;6010616;29;20260;-72
2022/08/02 03:15:29;;;;;;;6.37;2.43;;;;;;;14.23;76.08;101841.28;6016605;29;21438;-72
2022/08/02 03:18:50;;;;;;;6.83;3.37;;;;;;;14.29;75.86;101835.34;6009599;29;20243;-73
2022/08/02 03:22:11;;;;;;;5.30;2.90;;;;;;;14.39;76.18;101849.78;6006235;29;20232;-72
2022/08/02 03:25:32;;;;;;;9.23;2.90;;;;;;;14.34;75.62;101845.78;6008820;29;20235;-71
2022/08/02 03:28:54;;;;;;;7.20;4.10;;;;;;;14.34;75.83;101835.81;6008723;29;20235;-73
2022/08/02 03:32:15;;;;;;;8.40;6.17;;;;;;;14.27;76.11;101844.56;6007534;29;20262;-72
2022/08/02 03:35:38;;;;;;;9.07;5.27;;;;;;;14.29;75.96;101839.91;6007882;29;20223;-73
2022/08/02 03:39:01;;;;;;;7.33;4.47;;;;;;;14.51;74.88;101842.44;6006869;29;20861;-72
2022/08/02 03:42:23;;;;;;;5.80;3.33;;;;;;;14.66;75.06;101835.63;6007715;29;20998;-73
2022/08/02 03:45:47;;;;;;;6.63;3.17;;;;;;;14.57;74.92;101841.88;6012565;29;20266;-73
2022/08/02 03:49:11;;;;;;;6.77;3.73;;;;;;;14.56;74.91;101844.72;6007092;29;21008;-73
2022/08/02 03:52:33;;;;;;;8.63;3.83;;;;;;;14.56;74.91;101836.59;6004953;29;20754;-73
2022/08/02 03:55:54;;;;;;;4.63;3.13;;;;;;;14.70;75.19;101826.22;6007942;29;20321;-73
2022/08/02 03:59:15;;;;;;;5.63;4.23;;;;;;;14.81;74.86;101817.09;6009045;29;20227;-72
2022/08/02 04:02:37;;;;;;;5.77;2.80;;;;;;;14.77;74.64;101819.19;6007683;29;20235;-73
2022/08/02 04:05:58;;;;;;;6.60;3.10;;;;;;;14.55;75.32;101827.59;6004566;29;20322;-73
2022/08/02 04:09:19;;;;;;;8.50;3.43;;;;;;;14.59;75.51;101834.44;6009747;29;20613;-74
2022/08/02 04:12:41;;;;;;;7.10;3.27;;;;;;;14.55;75.75;101837.56;6006053;29;20616;-72
2022/08/02 04:16:08;;;;;;;8.93;6.37;;;;;;;14.52;76.52;101844.13;6007772;29;20672;-73
2022/08/02 04:19:36;;;;;;;12.60;6.97;;;;;;;14.55;76.21;101843.88;6007685;29;20230;-73
2022/08/02 04:23:00;;;;;;;9.07;6.57;;;;;;;14.63;76.32;101845.88;6007626;29;20230;-73
2022/08/02 04:26:23;;;;;;;15.30;7.17;;;;;;;14.64;75.56;101843.06;5994825;29;20231;-72
2022/08/02 04:29:45;;;;;;;8.73;5.93;;;;;;;14.58;76.42;101840.03;6005314;29;20333;-72
2022/08/02 04:33:07;;;;;;;11.93;5.93;;;;;;;14.83;75.94;101850.38;6003110;29;20239;-73
2022/08/02 04:36:30;;;;;;;12.83;7.30;;;;;;;14.79;76.17;101847.06;6006409;29;20281;-72
2022/08/02 04:39:51;;;;;;;6.67;3.90;;;;;;;14.49;76.91;101865.25;6010154;29;20243;-72
2022/08/02 04:43:12;;;;;;;9.70;3.97;;;;;;;14.50;77.13;101867.84;6007948;29;20231;-73
2022/08/02 04:46:35;;;;;;;9.27;4.27;;;;;;;14.44;77.17;101862.97;6006924;29;20234;-73
2022/08/02 04:49:56;;;;;;;8.33;4.17;;;;;;;14.52;77.42;101846.00;6010406;29;20242;-73
2022/08/02 04:53:18;;;;;;;9.63;4.87;;;;;;;14.70;76.71;101849.75;6009191;29;20226;-74
2022/08/02 04:56:39;;;;;;;8.73;3.63;;;;;;;14.90;76.38;101857.81;6005803;29;20238;-73
2022/08/02 05:00:00;;;;;;;11.60;4.10;;;;;;;14.85;75.96;101862.78;6001944;29;20235;-72
2022/08/02 05:03:21;;;;;;;11.53;4.83;;;;;;;14.80;75.96;101858.78;6000075;29;20566;-72
2022/08/02 05:06:42;;;;;;;14.20;5.10;;;;;;;14.61;77.30;101850.59;6000033;29;20231;-73
2022/08/02 05:10:06;;;;;;;6.17;3.97;;;;;;;14.70;77.08;101852.47;5994649;29;20258;-70
2022/08/02 05:13:26;;;;;;;8.23;4.57;;;;;;;14.93;76.28;101857.53;5996343;29;20234;-70
2022/08/02 05:16:47;;;;;;;9.77;4.50;;;;;;;15.07;76.13;101848.97;6011267;29;20243;-70
2022/08/02 05:20:09;;;;;;;8.13;5.07;;;;;;;15.16;76.24;101850.00;6003072;29;20234;-71
2022/08/02 05:23:30;;;;;;;9.13;4.50;;;;;;;15.42;74.82;101856.56;6011224;29;20851;-69
2022/08/02 05:26:52;;;;;;;7.73;4.77;;;;;;;15.32;75.62;101852.13;6010504;29;20228;-70
2022/08/02 05:30:13;;;;;;;7.90;4.33;;;;;;;15.28;75.70;101853.41;6009231;29;20235;-71
2022/08/02 05:33:33;;;;;;;9.27;4.53;;;;;;;15.40;75.44;101853.13;6010588;29;20246;-71
2022/08/02 05:36:54;;;;;;;10.33;4.83;;;;;;;15.49;75.41;101860.47;6010930;29;20552;-71
2022/08/02 05:40:15;;;;;;;10.43;4.67;;;;;;;15.48;74.95;101856.03;6008183;29;20281;-71
2022/08/02 05:43:38;;;;;;;7.53;5.00;;;;;;;15.61;74.32;101862.03;6010703;29;20262;-70
2022/08/02 05:46:59;;;;;;;9.53;5.00;;;;;;;15.83;73.31;101856.25;6008146;29;20254;-70
2022/08/02 05:50:20;;;;;;;9.27;5.37;;;;;;;15.91;73.47;101856.41;6013100;29;21874;-71
2022/08/02 05:53:46;;;;;;;13.20;6.10;;;;;;;15.83;72.38;101856.25;6008620;29;20254;-71
2022/08/02 05:57:14;;;;;;;9.30;5.45;;;;;;;16.16;71.78;101854.03;6009770;29;20242;-70
2022/08/02 06:00:41;;;;;;;10.33;4.90;;;;;;;15.93;71.36;101864.41;6010527;29;20325;-71
2022/08/02 06:04:05;;;;;;;11.30;4.77;;;;;;;15.95;71.26;101857.84;6011265;29;20246;-71
2022/08/02 06:07:26;;;;;;;7.87;4.33;;;;;;;16.29;70.29;101855.41;6008950;29;20231;-71
2022/08/02 06:10:49;;;;;;;15.43;5.33;;;;;;;16.32;70.50;101848.81;6010401;29;20501;-72
2022/08/02 06:14:11;;;;;;;12.10;5.87;;;;;;;16.65;69.35;101851.84;6011102;29;20235;-71
2022/08/02 06:17:34;;;;;;;8.95;3.80;;;;;;;16.47;68.82;101858.22;6009939;29;20386;-71
2022/08/02 06:20:57;;;;;;;10.67;3.30;;;;;;;16.56;68.22;101849.19;6013835;29;20238;-71
2022/08/02 06:24:19;;;;;;;6.23;3.30;;;;;;;16.62;66.58;101851.31;6008632;29;20672;-71
2022/08/02 06:27:41;;;;;;;17.98;4.60;;;;;;;16.76;67.42;101846.22;6007145;29;21069;-71
2022/08/02 06:31:02;;;;;;;8.10;3.43;;;;;;;16.64;66.63;101855.59;6011408;29;20234;-70
2022/08/02 06:34:24;;;;;;;5.65;3.55;;;;;;;16.46;66.90;101856.50;6008956;29;20235;-71
2022/08/02 06:37:52;;;;;;;5.17;3.00;;;;;;;16.78;66.27;101856.94;6010318;29;20242;-71
2022/08/02 06:41:15;;;;;;;7.00;3.07;;;;;;;16.97;66.06;101853.25;6017113;29;20676;-70
2022/08/02 06:44:37;;;;;;;9.85;3.58;;;;;;;16.66;66.79;101853.59;6020892;29;20230;-72
2022/08/02 06:47:58;;;;;;;9.73;3.53;;;;;;;16.55;66.64;101861.94;6015616;29;20239;-71
2022/08/02 06:51:21;;;;;;;10.00;3.10;;;;;;;16.47;66.71;101855.50;6011474;29;20238;-71
2022/08/02 06:54:41;;;;;;;6.97;3.28;;;;;;;16.62;66.73;101845.88;6017831;29;20308;-71
2022/08/02 06:58:03;;;;;;;9.50;2.90;;;;;;;16.87;65.76;101849.72;6012555;29;20234;-71
2022/08/02 07:01:24;;;;;;;6.10;3.60;;;;;;;16.57;66.02;101849.03;6009786;29;20235;-71
2022/08/02 07:04:45;;;;;;;5.60;2.58;;;;;;;17.11;64.81;101853.56;6013804;29;20266;-70
2022/08/02 07:08:07;;;;;;;5.32;2.45;;;;;;;17.63;63.95;101849.13;6014120;29;20640;-72
2022/08/02 07:11:28;;;;;;;2.90;2.55;;;;;;;17.59;63.05;101836.84;6012291;29;21209;-71
2022/08/02 07:14:49;;;;;;;8.30;2.80;;;;;;;17.50;64.15;101843.25;6013837;29;20246;-70
2022/08/02 07:18:13;;;;;;;8.65;4.03;;;;;;;17.78;62.69;101841.25;6014454;29;20230;-70
2022/08/02 07:21:34;;;;;;;6.68;2.60;;;;;;;17.91;62.58;101828.03;6015851;29;20234;-71
2022/08/02 07:24:59;;;;;;;5.50;2.40;;;;;;;18.48;61.36;101827.41;6015803;29;20234;-71
2022/08/02 07:28:20;;;;;;;7.00;3.17;;;;;;;17.51;63.52;101828.59;6012818;29;20323;-71
2022/08/02 07:31:41;;;;;;;5.50;2.53;;;;;;;18.01;62.55;101818.75;6013529;29;20246;-72
2022/08/02 07:35:02;;;;;;;8.68;3.10;;;;;;;18.17;61.59;101820.69;6010384;29;20621;-71
2022/08/02 07:38:23;;;;;;;7.55;2.58;;;;;;;17.51;63.31;101829.47;6011608;29;20247;-71
2022/08/02 07:41:46;;;;;;;4.72;2.53;;;;;;;17.30;64.19;101831.63;6015304;29;20616;-72
2022/08/02 07:45:08;;;;;;;7.88;3.45;;;;;;;16.94;64.68;101840.78;6014107;29;20234;-71
2022/08/02 07:48:29;;;;;;;6.82;2.50;;;;;;;17.72;63.47;101834.56;6014717;29;20258;-71
2022/08/02 07:51:49;;;;;;;5.70;2.28;;;;;;;17.78;62.75;101838.50;6012553;29;20238;-72
2022/08/02 07:55:12;;;;;;;6.38;3.03;;;;;;;17.74;62.73;101835.25;6011556;29;20688;-71
2022/08/02 07:58:34;;;;;;;8.05;2.40;;;;;;;18.12;60.81;101831.25;6014541;29;20243;-73
2022/08/02 08:01:55;;;;;;;7.05;2.65;;;;;;;18.08;61.86;101825.28;6014207;29;20802;-72
2022/08/02 08:05:16;;;;;;;10.02;2.30;;;;;;;17.94;62.90;101825.00;6016911;29;20242;-72
2022/08/02 08:08:37;;;;;;;4.85;2.42;;;;;;;17.70;61.85;101819.38;6017208;29;20735;-71
2022/08/02 08:11:58;;;;;;;3.38;1.92;;;;;;;18.27;61.73;101811.38;6019941;29;20789;-72
2022/08/02 08:15:21;;;;;;;8.73;3.47;;;;;;;18.48;60.25;101805.53;6016710;29;20334;-71
2022/08/02 08:18:42;;;;;;;4.75;2.20;;;;;;;18.72;59.71;101805.63;6012691;29;20230;-72
2022/08/02 08:22:03;;;;;;;6.78;2.97;;;;;;;18.29;60.38;101809.31;6016077;29;20242;-72
2022/08/02 08:25:24;;;;;;;9.40;2.53;;;;;;;18.10;61.30;101787.75;6015388;29;20230;-72
2022/08/02 08:28:45;;;;;;;5.38;1.83;;;;;;;18.71;59.58;101783.94;6018544;29;20547;-71
2022/08/02 08:32:08;;;;;;;14.98;3.28;;;;;;;18.52;59.65;101789.69;6019953;29;20230;-71
2022/08/02 08:35:29;;;;;;;5.65;2.38;;;;;;;18.09;60.47;101766.94;6019021;29;20226;-72
2022/08/02 08:38:50;;;;;;;7.95;3.22;;;;;;;18.32;60.27;101767.19;6019031;29;20246;-71
2022/08/02 08:42:11;;;;;;;7.63;2.40;;;;;;;18.99;59.08;101768.94;6018295;29;20226;-71
2022/08/02 08:45:32;;;;;;;7.57;2.22;;;;;;;19.22;58.12;101763.66;6014833;29;20613;-72
2022/08/02 08:49:00;;;;;;;7.20;2.05;;;;;;;18.70;57.40;101763.94;6018368;29;20285;-70
2022/08/02 08:52:25;;;;;;;7.53;3.03;;;;;;;18.84;57.85;101755.09;6019234;29;20612;-71
2022/08/02 08:55:48;;;;;;;7.45;2.72;;;;;;;19.40;56.62;101753.47;6016317;29;20239;-71
2022/08/02 08:59:10;;;;;;;4.53;2.50;;;;;;;19.46;56.61;101755.50;6015564;29;20328;-73
2022/08/02 09:02:33;;;;;;;9.32;3.20;;;;;;;19.27;56.69;101758.56;6017624;29;20222;-72
2022/08/02 09:05:58;;;;;;;3.47;1.85;;;;;;;19.51;56.08;101762.16;6017252;29;20235;-72
2022/08/02 09:09:19;;;;;;;7.65;2.38;;;;;;;19.39;55.80;101759.94;6021138;29;20696;-72
2022/08/02 09:12:40;;;;;;;9.57;3.38;;;;;;;19.75;55.70;101769.50;6013767;29;20234;-73
2022/08/02 09:16:03;;;;;;;7.22;2.58;;;;;;;19.60;54.99;101760.28;6012843;29;20246;-73
2022/08/02 09:19:25;;;;;;;6.22;2.45;;;;;;;19.46;55.83;101747.31;6010299;29;20271;-70
2022/08/02 09:23:05;;;;;;;4.22;2.10;;;;;;;19.56;54.90;101740.63;6014689;29;20242;-72
2022/08/02 09:26:26;;;;;;;6.00;2.70;;;;;;;19.09;55.56;101748.63;6012721;29;20586;-73
2022/08/02 09:29:48;;;;;;;4.82;2.60;;;;;;;19.82;54.88;101734.91;6018529;29;20242;-72
2022/08/02 09:33:09;;;;;;;6.75;2.42;;;;;;;19.46;54.08;101750.03;6016090;29;20242;-73
2022/08/02 09:36:38;;;;;;;6.82;2.40;;;;;;;19.71;54.88;101735.28;6017716;29;20612;-71
2022/08/02 09:40:03;;;;;;;8.25;2.78;;;;;;;20.24;53.71;101720.94;6006100;29;20321;-71
2022/08/02 09:43:38;;;;;;;3.85;2.28;;;;;;;20.25;53.86;101737.19;6018390;29;20226;-72
2022/08/02 09:46:59;;;;;;;4.57;1.85;;;;;;;20.39;53.78;101736.44;6019833;29;20287;-71
2022/08/02 09:50:20;;;;;;;6.43;2.15;;;;;;;20.21;53.45;101732.25;6015848;29;20238;-72
2022/08/02 09:53:42;;;;;;;7.20;3.63;;;;;;;20.40;54.35;101723.59;6011946;29;20230;-70
2022/08/02 09:57:04;;;;;;;6.32;1.90;;;;;;;20.64;52.28;101732.53;6025240;29;20234;-72
2022/08/02 10:00:25;;;;;;;6.97;2.47;;;;;;;20.86;52.04;101730.84;6016605;29;20637;-70
2022/08/02 10:03:55;;;;;;;6.20;1.70;;;;;;;21.20;51.31;101723.06;6012223;29;20235;-70
2022/08/02 10:07:17;;;;;;;4.18;2.25;;;;;;;20.66;50.68;101735.09;6012056;29;20878;-71
2022/08/02 10:10:38;;;;;;;4.22;1.70;;;;;;;21.08;50.76;101731.91;6012568;29;20498;-71
2022/08/02 10:14:02;;;;;;;6.20;2.42;;;;;;;21.24;50.29;101731.78;6014584;29;20313;-71
2022/08/02 10:17:24;;;;;;;5.63;2.20;;;;;;;21.15;49.83;101738.38;6011954;29;20864;-73
2022/08/02 10:20:46;;;;;;;4.10;2.05;;;;;;;21.28;49.94;101727.63;6015397;29;20243;-72
2022/08/02 10:24:10;;;;;;;9.43;2.80;;;;;;;21.25;48.90;101719.78;6019340;29;20234;-72
2022/08/02 10:27:32;;;;;;;4.38;1.77;;;;;;;21.50;48.65;101718.50;6018096;29;20751;-71
2022/08/02 10:30:56;;;;;;;4.97;2.13;;;;;;;21.40;48.30;101723.41;6015466;29;20238;-73
2022/08/02 10:34:20;;;;;;;3.72;2.08;;;;;;;21.42;47.82;101730.41;6014973;29;20234;-74
2022/08/02 10:37:43;;;;;;;3.92;2.00;;;;;;;22.16;48.90;101717.59;6017246;29;20573;-74
2022/08/02 10:41:06;;;;;;;3.75;2.90;;;;;;;22.20;46.87;101705.19;6015341;29;20624;-73
2022/08/02 10:44:29;;;;;;;4.60;1.70;;;;;;;21.99;46.23;101705.97;6020347;29;20964;-74
2022/08/02 10:48:04;;;;;;;4.75;2.03;;;;;;;22.00;46.10;101704.94;6020546;29;20238;-74
2022/08/02 10:51:25;;;;;;;2.90;2.20;;;;;;;22.13;46.16;101694.13;6014652;29;20739;-75
2022/08/02 10:54:55;;;;;;;5.93;2.58;;;;;;;22.14;44.53;101695.84;6019789;29;20227;-74
2022/08/02 10:58:16;;;;;;;4.07;1.75;;;;;;;22.14;42.61;101687.59;6021830;29;20265;-74
2022/08/02 11:01:43;;;;;;;6.50;2.35;;;;;;;22.08;43.69;101677.38;6021320;29;20230;-73
2022/08/02 11:05:09;;;;;;;4.32;2.03;;;;;;;22.68;43.25;101676.19;6010260;29;20395;-74
2022/08/02 11:08:30;;;;;;;4.95;1.65;;;;;;;23.01;42.10;101667.22;6002292;29;20235;-73
2022/08/02 11:12:02;;;;;;;5.05;1.83;;;;;;;23.08;40.54;101664.53;6002953;29;21125;-73
2022/08/02 11:15:23;;;;;;;2.90;1.90;;;;;;;23.45;42.03;101653.22;6006569;29;20321;-72
2022/08/02 11:19:04;;;;;;;5.35;1.58;;;;;;;23.58;39.90;101664.31;6005699;29;20238;-77
2022/08/02 11:22:27;;;;;;;4.47;2.60;;;;;;;23.75;40.16;101656.59;6008795;29;20226;-74
2022/08/02 11:25:49;;;;;;;2.45;1.92;;;;;;;22.83;38.60;101666.84;5999573;29;20267;-70
2022/08/02 11:29:11;;;;;;;3.75;1.88;;;;;;;23.26;39.28;101653.06;6003691;29;20625;-76
2022/08/02 11:32:34;;;;;;;1.70;1.60;;;;;;;23.96;40.07;101655.66;6007142;29;20239;-73
2022/08/02 11:36:01;;;;;;;4.55;1.95;;;;;;;24.11;39.63;101657.25;6011708;29;20235;-72
2022/08/02 11:39:24;;;;;;;4.55;1.52;;;;;;;24.13;39.90;101640.50;6012878;29;20246;-74
2022/08/02 11:42:49;;;;;;;4.03;1.58;;;;;;;24.14;39.45;101643.03;6012551;29;20262;-75
2022/08/02 11:46:14;;;;;;;4.57;1.92;;;;;;;24.26;39.94;101644.13;6011886;29;20246;-72
2022/08/02 11:49:38;;;;;;;6.70;1.95;;;;;;;24.22;39.25;101644.78;6012985;29;20254;-73
2022/08/02 11:52:59;;;;;;;3.90;2.00;;;;;;;24.80;37.69;101649.63;6011568;29;20234;-75
2022/08/02 11:56:31;;;;;;;3.35;1.75;;;;;;;25.30;37.26;101639.88;6008807;29;20629;-73
2022/08/02 11:59:53;;;;;;;4.32;1.58;;;;;;;25.36;36.95;101634.34;6007148;29;20234;-78
2022/08/02 12:03:14;;;;;;;2.85;1.50;;;;;;;24.22;38.42;101647.53;6002054;29;20620;-74
2022/08/02 12:06:35;;;;;;;5.30;1.50;;;;;;;24.12;38.39;101636.88;6011293;29;20660;-75
2022/08/02 12:10:00;;;;;;;3.83;1.70;;;;;;;24.95;38.80;101627.34;6002912;29;20234;-76
2022/08/02 12:13:22;;;;;;;6.15;1.63;;;;;;;25.94;37.02;101620.63;6009415;29;20287;-70
2022/08/02 12:20:35;;;;;;;5.65;1.60;;;;;;;25.40;37.72;101604.38;6006439;29;20440;-72
2022/08/02 12:23:56;;;;;;;4.65;1.90;;;;;;;26.08;36.30;101601.03;5997720;29;20243;-74
2022/08/02 12:27:35;;;;;;;2.80;1.38;;;;;;;25.40;37.96;101604.38;6004524;29;20329;-74
2022/08/02 12:30:59;;;;;;;2.28;1.70;;;;;;;25.93;36.92;101605.13;5995766;29;20239;-71
2022/08/02 12:34:21;;;;;;;4.57;1.60;;;;;;;25.67;37.08;101608.81;5999822;29;20239;-73
2022/08/02 12:37:44;;;;;;;5.63;2.33;;;;;;;25.40;38.10;101604.38;6011365;29;20239;-73
2022/08/02 12:41:13;;;;;;;3.42;1.70;;;;;;;26.92;36.61;101589.63;5996764;29;20943;-72
2022/08/02 12:44:35;;;;;;;1.98;1.30;;;;;;;27.47;35.12;101577.63;5998489;29;20669;-73
2022/08/02 12:48:00;;;;;;;3.15;1.70;;;;;;;26.12;37.05;101593.13;5998925;29;20231;-74
2022/08/02 12:51:25;;;;;;;2.20;1.50;;;;;;;28.13;34.29;101585.16;5991352;29;20238;-69
2022/08/02 12:54:47;;;;;;;3.95;1.50;;;;;;;29.10;32.49;101565.28;5993932;29;20628;-71
2022/08/02 12:58:08;;;;;;;4.78;1.52;;;;;;;30.66;30.70;101560.31;5995181;29;20313;-71
2022/08/02 13:01:29;;;;;;;3.97;1.90;;;;;;;31.15;30.00;101562.25;5999368;29;20246;-70
2022/08/02 13:04:52;;;;;;;2.85;1.27;;;;;;;28.74;32.23;101568.25;5998771;29;20230;-72
2022/08/02 13:08:13;;;;;;;3.53;2.00;;;;;;;26.99;34.22;101572.97;6000217;29;22054;-72
2022/08/02 13:11:34;;;;;;;1.58;1.08;;;;;;;26.92;34.61;101578.56;6005942;29;20230;-73
2022/08/02 13:14:55;;;;;;;2.60;1.58;;;;;;;29.13;31.28;101573.13;6011656;29;20242;-73
2022/08/02 13:18:17;;;;;;;4.28;1.60;;;;;;;29.96;31.37;101582.88;5996729;29;20234;-72
2022/08/02 13:21:39;;;;;;;3.92;1.40;;;;;;;27.81;31.87;101578.91;6007570;29;20559;-73
2022/08/02 13:25:00;;;;;;;3.17;1.48;;;;;;;27.09;32.33;101571.38;6008614;29;20235;-69
2022/08/02 13:28:21;;;;;;;3.58;1.50;;;;;;;26.42;33.56;101572.13;6010527;29;20238;-72
2022/08/02 13:31:42;;;;;;;4.60;1.65;;;;;;;26.80;33.45;101566.53;6005972;29;20238;-72
2022/08/02 13:35:03;;;;;;;6.22;1.92;;;;;;;27.00;32.19;101563.59;5986474;29;20317;-74
2022/08/02 13:38:26;;;;;;;3.63;1.35;;;;;;;27.99;31.63;101565.09;6007936;29;20238;-72
2022/08/02 13:41:47;;;;;;;8.15;1.42;;;;;;;27.90;32.04;101554.50;6007179;29;20242;-72
2022/08/02 13:45:10;;;;;;;5.45;1.92;;;;;;;27.69;31.16;101556.69;6002089;29;20230;-74
2022/08/02 13:48:31;;;;;;;2.97;1.45;;;;;;;28.25;30.78;101550.84;6013275;29;20330;-73
2022/08/02 13:51:52;;;;;;;2.83;1.55;;;;;;;28.70;30.03;101562.34;6001740;29;20617;-72
2022/08/02 13:55:14;;;;;;;3.25;1.70;;;;;;;29.67;29.21;101532.97;6001815;29;20681;-74
2022/08/02 13:58:35;;;;;;;1.73;1.23;;;;;;;29.55;29.41;101546.06;6004441;29;20230;-72
2022/08/02 14:01:57;;;;;;;2.67;1.98;;;;;;;29.23;30.60;101537.28;6007739;29;20243;-70
2022/08/02 14:05:18;;;;;;;2.30;1.50;;;;;;;27.79;33.30;101538.69;6007095;29;20238;-72
2022/08/02 14:08:39;;;;;;;2.03;1.25;;;;;;;27.49;33.75;101535.84;6003573;29;20231;-71
2022/08/02 14:12:02;;;;;;;2.45;1.60;;;;;;;28.05;34.05;101530.88;6003592;29;20238;-71
2022/08/02 14:15:23;;;;;;;2.70;1.75;;;;;;;26.98;35.06;101525.06;6006659;29;20243;-71
2022/08/02 14:18:44;;;;;;;2.70;1.42;;;;;;;27.22;35.16;101531.66;6004383;29;20362;-71
2022/08/02 14:22:05;;;;;;;4.80;1.65;;;;;;;26.56;36.45;101523.91;6005258;29;20625;-73
2022/08/02 14:25:26;;;;;;;2.25;1.40;;;;;;;27.76;35.11;101531.66;6003335;29;20239;-71
2022/08/02 14:28:48;;;;;;;4.50;1.60;;;;;;;27.28;36.17;101520.50;6004305;29;20700;-71
2022/08/02 14:32:09;;;;;;;1.98;1.40;;;;;;;26.77;37.32;101523.56;6009420;29;20692;-73
2022/08/02 14:35:31;;;;;;;4.28;1.58;;;;;;;27.23;37.26;101520.31;6004889;29;20238;-71
2022/08/02 14:38:52;;;;;;;2.33;1.52;;;;;;;26.29;37.79;101524.31;6003430;29;20329;-72
2022/08/02 14:42:13;;;;;;;2.00;1.48;;;;;;;26.51;38.29;101518.22;6003231;29;20242;-72
2022/08/02 14:45:35;;;;;;;3.50;1.50;;;;;;;26.60;38.27;101514.09;6005147;29;20231;-72
2022/08/02 14:48:57;;;;;;;3.65;1.58;;;;;;;26.62;38.44;101513.84;6001564;29;20246;-71
2022/08/02 14:52:18;;;;;;;2.38;1.65;;;;;;;27.09;37.85;101504.09;6001506;29;20319;-69
2022/08/02 14:55:41;;;;;;;3.30;1.88;;;;;;;27.02;38.22;101500.53;5998166;29;20227;-72
2022/08/02 14:59:02;;;;;;;1.77;1.63;;;;;;;26.68;39.16;101493.63;6004411;29;20235;-71
2022/08/02 15:02:25;;;;;;;3.30;1.40;;;;;;;25.86;39.83;101504.78;6002153;29;20246;-71
2022/08/02 15:05:46;;;;;;;4.07;1.80;;;;;;;26.31;39.92;101497.28;6002113;29;20574;-71
2022/08/02 15:09:06;;;;;;;2.15;1.95;;;;;;;25.97;40.31;101501.34;6008215;29;20250;-68
2022/08/02 15:12:27;;;;;;;4.68;1.83;;;;;;;26.08;40.31;101504.28;6008513;29;20242;-69
2022/08/02 15:15:48;;;;;;;3.13;1.55;;;;;;;25.96;40.66;101486.66;5994139;29;20238;-70
2022/08/02 15:19:10;;;;;;;2.97;1.83;;;;;;;26.36;40.25;101478.97;6017021;29;20230;-68
2022/08/02 15:22:31;;;;;;;1.65;1.55;;;;;;;26.69;39.26;101478.69;6014938;29;20234;-71
2022/08/02 15:25:52;;;;;;;3.50;1.40;;;;;;;26.71;39.42;101482.94;6015939;29;20258;-69
2022/08/02 15:29:13;;;;;;;3.47;1.77;;;;;;;26.77;40.01;101481.19;6015986;29;20303;-70
2022/08/02 15:32:34;;;;;;;2.65;1.63;;;;;;;27.09;39.13;101473.63;6022007;29;20230;-69
2022/08/02 15:35:57;;;;;;;2.17;1.63;;;;;;;27.30;39.90;101468.50;6019259;29;20510;-68
2022/08/02 15:39:18;;;;;;;1.60;1.50;;;;;;;26.81;39.72;101461.16;6019046;29;20242;-67
2022/08/02 15:42:38;;;;;;;1.48;1.38;;;;;;;27.14;39.33;101465.50;6007684;29;20526;-73
2022/08/02 15:46:00;;;;;;;4.15;1.75;;;;;;;26.89;40.22;101466.38;6014970;29;20231;-74